createdAt,value
2023-03-17T00:03:42.987Z,63.59
2023-03-17T00:09:06.792Z,63.43
2023-03-17T00:14:30.126Z,63.29
2023-03-17T00:19:52.055Z,63.16
2023-03-17T00:25:26.038Z,63.04
2023-03-17T00:30:50.639Z,63.77
2023-03-17T00:36:20.198Z,63.60
2023-03-17T00:41:45.160Z,64.15
2023-03-17T00:47:08.896Z,65.13
2023-03-17T00:52:31.095Z,65.30
2023-03-17T00:57:53.861Z,65.47
2023-03-17T01:03:16.557Z,65.39
2023-03-17T01:08:39.919Z,65.62
2023-03-17T01:14:03.635Z,65.59
2023-03-17T01:19:25.775Z,66.18
2023-03-17T01:24:48.423Z,65.80
2023-03-17T01:30:19.434Z,65.97
2023-03-17T01:35:43.952Z,66.40
2023-03-17T01:41:06.055Z,67.01
2023-03-17T01:46:32.799Z,66.99
2023-03-17T01:51:57.833Z,66.79
2023-03-17T01:57:34.005Z,67.20
2023-03-17T02:02:57.364Z,67.27
2023-03-17T02:08:19.279Z,66.68
2023-03-17T02:13:42.211Z,65.95
2023-03-17T02:19:04.254Z,65.91
2023-03-17T02:24:31.014Z,66.42
2023-03-17T02:29:53.926Z,66.63
2023-03-17T02:35:19.389Z,66.46
2023-03-17T02:40:41.702Z,66.10
2023-03-17T02:46:06.029Z,65.93
2023-03-17T02:51:28.565Z,65.49
2023-03-17T02:56:51.002Z,65.33
2023-03-17T03:02:12.661Z,65.13
2023-03-17T03:07:35.237Z,64.97
2023-03-17T03:12:57.387Z,64.87
2023-03-17T03:18:19.818Z,64.52
2023-03-17T03:23:41.656Z,64.25
2023-03-17T03:29:07.807Z,64.02
2023-03-17T03:34:29.821Z,63.57
2023-03-17T03:39:51.600Z,63.09
2023-03-17T03:45:13.980Z,62.64
2023-03-17T03:50:35.608Z,62.31
2023-03-17T03:55:57.844Z,62.76
2023-03-17T04:01:20.266Z,62.99
2023-03-17T04:06:42.296Z,63.27
2023-03-17T04:12:04.726Z,63.67
2023-03-17T04:17:26.768Z,63.36
2023-03-17T04:22:48.885Z,63.30
2023-03-17T04:28:12.127Z,62.96
2023-03-17T04:33:34.352Z,63.12
2023-03-17T04:38:56.278Z,62.88
2023-03-17T04:44:18.093Z,63.02
2023-03-17T04:49:39.837Z,63.53
2023-03-17T04:55:02.068Z,64.14
2023-03-17T05:00:23.919Z,64.95
2023-03-17T05:05:47.332Z,65.25
2023-03-17T05:11:09.664Z,65.81
2023-03-17T05:16:31.387Z,65.97
2023-03-17T05:21:53.362Z,66.05
2023-03-17T05:27:15.554Z,66.01
2023-03-17T05:32:37.557Z,65.40
2023-03-17T05:37:59.617Z,65.09
2023-03-17T05:43:24.348Z,64.92
2023-03-17T05:48:49.025Z,64.56
2023-03-17T05:54:12.289Z,64.78
2023-03-17T05:59:34.386Z,64.67
2023-03-17T06:04:56.850Z,63.97
2023-03-17T06:10:18.695Z,63.58
2023-03-17T06:15:42.457Z,62.92
2023-03-17T06:21:04.441Z,62.74
2023-03-17T06:26:27.325Z,62.24
2023-03-17T06:31:51.326Z,62.02
2023-03-17T06:37:14.242Z,61.32
2023-03-17T06:42:36.611Z,60.93
2023-03-17T06:47:59.042Z,60.24
2023-03-17T06:53:22.013Z,59.41
2023-03-17T06:58:43.933Z,58.55
2023-03-17T07:04:05.832Z,58.02
2023-03-17T07:09:28.868Z,56.97
2023-03-17T07:14:50.585Z,56.67
2023-03-17T07:20:14.051Z,55.94
2023-03-17T07:25:37.096Z,55.32
2023-03-17T07:30:58.824Z,54.58
2023-03-17T07:36:20.928Z,53.74
2023-03-17T07:41:44.311Z,52.69
2023-03-17T07:47:06.501Z,51.07
2023-03-17T07:52:28.071Z,49.80
2023-03-17T07:57:51.617Z,48.91
2023-03-17T08:03:13.452Z,47.21
2023-03-17T08:08:35.804Z,46.10
2023-03-17T08:13:58.137Z,46.08
2023-03-17T08:19:20.066Z,45.73
2023-03-17T08:24:43.219Z,44.93
2023-03-17T08:30:06.275Z,44.20
2023-03-17T08:35:28.491Z,42.68
2023-03-17T08:40:51.197Z,41.70
2023-03-17T08:46:40.533Z,42.19
2023-03-17T08:52:03.660Z,41.84
2023-03-17T08:57:25.591Z,41.08
2023-03-17T09:02:48.280Z,40.56
2023-03-17T09:08:11.573Z,40.70
2023-03-17T09:13:34.819Z,39.24
2023-03-17T09:18:56.920Z,39.21
2023-03-17T09:24:19.548Z,38.62
2023-03-17T09:29:42.381Z,38.26
2023-03-17T09:35:05.499Z,38.28
2023-03-17T09:40:35.911Z,36.71
2023-03-17T09:46:25.824Z,36.74
2023-03-17T09:51:49.000Z,37.16
2023-03-17T09:57:22.128Z,37.32
2023-03-17T10:02:43.999Z,37.24
2023-03-17T10:08:31.798Z,36.86
2023-03-17T10:14:04.463Z,36.73
2023-03-17T10:19:35.332Z,36.16
2023-03-17T10:25:03.966Z,36.66
2023-03-17T10:30:26.529Z,36.66
2023-03-17T10:35:48.398Z,35.30
2023-03-17T10:41:13.821Z,35.39
2023-03-17T10:46:38.427Z,35.78
2023-03-17T10:52:07.975Z,34.72
2023-03-17T10:57:30.362Z,34.17
2023-03-17T11:03:00.417Z,33.49
2023-03-17T11:08:23.358Z,33.78
2023-03-17T11:13:45.794Z,33.89
2023-03-17T11:19:14.216Z,33.12
2023-03-17T11:24:41.784Z,33.05
2023-03-17T11:30:16.787Z,32.46
2023-03-17T11:35:58.122Z,33.41
2023-03-17T11:41:26.380Z,33.21
2023-03-17T11:47:09.413Z,32.16
2023-03-17T11:52:53.319Z,31.19
2023-03-17T11:58:40.339Z,30.78
2023-03-17T12:04:03.260Z,30.11
2023-03-17T12:09:31.968Z,30.48
2023-03-17T12:14:54.449Z,29.90
2023-03-17T12:20:23.104Z,30.15
2023-03-17T12:25:52.056Z,29.93
2023-03-17T12:31:24.376Z,29.79
2023-03-17T12:36:46.681Z,30.02
2023-03-17T12:42:27.265Z,29.06
2023-03-17T12:47:50.986Z,31.04
2023-03-17T12:53:26.750Z,31.10
2023-03-17T12:58:50.795Z,30.44
2023-03-17T13:04:15.643Z,30.22
2023-03-17T13:09:44.450Z,29.34
2023-03-17T13:15:25.510Z,29.59
2023-03-17T13:20:59.557Z,29.04
2023-03-17T13:26:24.596Z,29.21
2023-03-17T13:31:46.843Z,28.61
2023-03-17T13:37:26.517Z,28.48
2023-03-17T13:43:03.503Z,28.42
2023-03-17T13:48:29.470Z,28.14
2023-03-17T13:53:58.339Z,28.49
2023-03-17T13:59:20.729Z,29.01
2023-03-17T14:04:52.899Z,29.13
2023-03-17T14:10:24.865Z,29.18
2023-03-17T14:15:56.607Z,28.80
2023-03-17T14:21:31.216Z,29.41
2023-03-17T14:26:55.636Z,29.17
2023-03-17T14:32:19.669Z,28.98
2023-03-17T14:37:41.559Z,29.91
2023-03-17T14:43:03.934Z,28.48
2023-03-17T14:48:32.110Z,28.31
2023-03-17T14:53:56.346Z,27.96
2023-03-17T14:59:23.207Z,28.45
2023-03-17T15:05:01.979Z,29.16
2023-03-17T15:10:25.004Z,29.79
2023-03-17T15:15:46.822Z,30.10
2023-03-17T15:21:29.590Z,30.10
2023-03-17T15:26:58.377Z,30.04
2023-03-17T15:32:23.527Z,29.68
2023-03-17T15:37:45.962Z,30.22
2023-03-17T15:43:12.587Z,29.90
2023-03-17T15:48:36.455Z,30.03
2023-03-17T15:53:58.360Z,30.03
2023-03-17T15:59:20.799Z,29.98
2023-03-17T16:04:42.372Z,30.62
2023-03-17T16:10:19.196Z,30.52
2023-03-17T16:15:43.511Z,30.89
2023-03-17T16:21:05.679Z,30.98
2023-03-17T16:26:27.506Z,31.28
2023-03-17T16:31:51.183Z,31.51
2023-03-17T16:37:16.673Z,31.68
2023-03-17T16:42:41.708Z,31.86
2023-03-17T16:48:04.354Z,32.17
2023-03-17T16:53:27.349Z,32.16
2023-03-17T16:58:49.704Z,32.58
2023-03-17T17:04:11.544Z,32.58
2023-03-17T17:09:33.278Z,32.66
2023-03-17T17:14:57.836Z,32.82
2023-03-17T17:20:25.684Z,33.01
2023-03-17T17:25:48.010Z,33.21
2023-03-17T17:31:10.890Z,33.38
2023-03-17T17:36:33.730Z,33.60
2023-03-17T17:41:55.862Z,33.59
2023-03-17T17:47:17.615Z,33.56
2023-03-17T17:52:39.563Z,34.18
2023-03-17T17:58:01.771Z,34.88
2023-03-17T18:03:25.426Z,35.48
2023-03-17T18:08:47.591Z,35.88
2023-03-17T18:14:10.489Z,36.33
2023-03-17T18:19:32.629Z,36.53
2023-03-17T18:24:54.829Z,36.68
2023-03-17T18:30:26.309Z,36.89
2023-03-17T18:35:50.226Z,37.04
2023-03-17T18:41:19.294Z,37.23
2023-03-17T18:46:40.778Z,36.91
2023-03-17T18:52:03.242Z,36.80
2023-03-17T18:57:24.968Z,36.62
2023-03-17T19:02:47.345Z,36.63
2023-03-17T19:08:09.337Z,36.63
2023-03-17T19:13:32.465Z,36.62
2023-03-17T19:18:58.116Z,36.71
2023-03-17T19:24:19.934Z,36.83
2023-03-17T19:29:41.965Z,36.85
2023-03-17T19:35:04.092Z,37.11
2023-03-17T19:40:26.330Z,37.41
2023-03-17T19:45:48.765Z,37.71
2023-03-17T19:51:13.013Z,37.84
2023-03-17T19:56:34.936Z,38.21
2023-03-17T20:01:59.836Z,38.41
2023-03-17T20:07:25.729Z,38.88
2023-03-17T20:12:48.329Z,39.04
2023-03-17T20:18:11.334Z,39.23
2023-03-17T20:23:33.435Z,39.66
2023-03-17T20:28:56.132Z,40.19
2023-03-17T20:34:18.479Z,40.04
2023-03-17T20:39:41.332Z,40.58
2023-03-17T20:45:03.722Z,40.36
2023-03-17T20:50:26.576Z,40.62
2023-03-17T20:55:50.899Z,40.92
2023-03-17T21:01:13.801Z,40.96
2023-03-17T21:06:37.065Z,41.61
2023-03-17T21:12:02.209Z,41.36
2023-03-17T21:17:24.955Z,41.58
2023-03-17T21:22:48.702Z,41.68
2023-03-17T21:28:13.935Z,41.92
2023-03-17T21:33:35.987Z,41.74
2023-03-17T21:39:00.987Z,42.14
2023-03-17T21:44:23.911Z,42.49
2023-03-17T21:49:45.744Z,42.82
2023-03-17T21:55:08.481Z,43.01
2023-03-17T22:00:42.627Z,42.86
2023-03-17T22:06:10.514Z,43.74
2023-03-17T22:11:32.641Z,43.70
2023-03-17T22:16:54.921Z,44.26
2023-03-17T22:22:17.091Z,44.38
2023-03-17T22:27:39.321Z,44.95
2023-03-17T22:33:01.206Z,45.48
2023-03-17T22:38:24.878Z,45.93
2023-03-17T22:43:47.203Z,46.13
2023-03-17T22:49:09.953Z,46.43
2023-03-17T22:54:32.015Z,46.90
2023-03-17T22:59:55.317Z,47.74
2023-03-17T23:05:16.853Z,47.87
2023-03-17T23:10:39.381Z,48.10
2023-03-17T23:16:04.959Z,48.30
2023-03-17T23:21:32.740Z,48.67
2023-03-17T23:26:54.799Z,48.95
2023-03-17T23:32:17.251Z,49.29
2023-03-17T23:37:39.508Z,49.60
2023-03-17T23:43:02.131Z,49.51
2023-03-17T23:48:25.722Z,49.53
2023-03-17T23:53:48.175Z,49.39
2023-03-17T23:59:10.880Z,49.83
